Time;durP1;ratioP1;P1;durP2;ratioP2;P2;SDS_P1;SDS_P2;PMS_P1;PMS_P2;Temp;Humidity;BMP_temperature;BMP_pressure;BME280_temperature;BME280_humidity;BME280_pressure;Samples;Min_cycle;Max_cycle;Signal;HPM_P1;HPM_P2
2022/10/05 00:01:20;;;;;;;20.55;4.15;;;15.40;99.90;;;;;;5051330;28;20047;-64
2022/10/05 00:03:47;;;;;;;11.48;2.65;;;15.40;99.90;;;;;;5050951;28;20025;-65
2022/10/05 00:06:15;;;;;;;7.60;3.03;;;15.40;99.90;;;;;;5054773;28;20091;-63
2022/10/05 00:08:43;;;;;;;18.45;4.25;;;15.40;99.90;;;;;;5066774;28;20078;-64
2022/10/05 00:11:14;;;;;;;10.25;3.08;;;15.50;99.90;;;;;;5062538;28;20033;-64
2022/10/05 00:13:41;;;;;;;19.27;3.92;;;15.50;99.90;;;;;;5048241;28;20013;-64
2022/10/05 00:16:15;;;;;;;16.00;3.67;;;15.50;99.90;;;;;;5052407;28;20350;-64
2022/10/05 00:18:48;;;;;;;22.23;4.27;;;15.50;99.90;;;;;;5067240;28;20039;-64
2022/10/05 00:21:24;;;;;;;13.73;3.20;;;15.60;99.90;;;;;;5050361;28;20021;-63
2022/10/05 00:23:54;;;;;;;10.88;3.72;;;15.50;99.90;;;;;;5059882;28;20032;-64
2022/10/05 00:26:24;;;;;;;11.27;3.17;;;15.50;99.90;;;;;;5048076;28;20021;-64
2022/10/05 00:28:53;;;;;;;15.00;3.40;;;15.50;99.90;;;;;;5051654;28;20031;-63
2022/10/05 00:31:22;;;;;;;10.35;3.35;;;15.50;99.90;;;;;;5048143;28;20444;-63
2022/10/05 00:33:50;;;;;;;8.23;3.05;;;15.60;99.90;;;;;;5051766;28;20036;-64
2022/10/05 00:36:18;;;;;;;8.70;3.28;;;15.70;99.90;;;;;;5047348;28;20444;-64
2022/10/05 00:38:48;;;;;;;12.55;4.40;;;15.80;99.90;;;;;;5045981;28;20036;-64
2022/10/05 00:41:21;;;;;;;10.27;3.75;;;15.80;99.90;;;;;;5045232;28;20021;-64
2022/10/05 00:44:20;;;;;;;12.43;4.15;;;15.90;99.90;;;;;;5049175;28;20032;-64
2022/10/05 00:47:11;;;;;;;13.48;4.60;;;15.90;99.90;;;;;;5049494;28;20082;-64
2022/10/05 00:50:17;;;;;;;13.88;4.13;;;15.90;99.90;;;;;;5044072;28;20124;-64
2022/10/05 00:53:06;;;;;;;14.30;4.70;;;16.00;99.90;;;;;;5041622;28;20021;-65
2022/10/05 00:55:51;;;;;;;19.10;5.63;;;16.00;99.90;;;;;;5044247;28;20021;-64
2022/10/05 00:58:31;;;;;;;16.38;6.65;;;16.00;99.90;;;;;;5049403;28;20056;-64
2022/10/05 01:01:04;;;;;;;15.95;6.07;;;16.10;99.90;;;;;;5050260;28;20025;-64
2022/10/05 01:03:45;;;;;;;14.57;5.47;;;16.10;99.90;;;;;;5045994;28;20397;-64
2022/10/05 01:06:24;;;;;;;13.10;5.20;;;16.20;99.90;;;;;;5045383;28;20032;-64
2022/10/05 01:09:04;;;;;;;12.95;5.38;;;16.20;99.90;;;;;;5046292;28;20013;-64
2022/10/05 01:11:49;;;;;;;10.88;6.18;;;16.30;99.90;;;;;;5045407;28;20115;-64
2022/10/05 01:14:27;;;;;;;;;;;16.40;99.90;;;;;;5047574;28;20408;-64
2022/10/05 01:17:31;;;;;;;13.65;5.22;;;16.50;99.90;;;;;;5046309;28;19917;-64
2022/10/05 01:20:16;;;;;;;12.82;4.00;;;16.40;99.90;;;;;;5025262;28;20032;-64
2022/10/05 01:22:52;;;;;;;17.77;4.85;;;16.50;99.90;;;;;;5045433;28;20158;-65
2022/10/05 01:25:46;;;;;;;8.73;3.97;;;16.60;99.90;;;;;;5063552;28;20059;-64
2022/10/05 01:28:25;;;;;;;16.65;3.75;;;16.50;99.90;;;;;;5052667;28;20028;-64
2022/10/05 01:31:19;;;;;;;13.15;4.13;;;16.40;99.90;;;;;;5053783;28;20035;-64
2022/10/05 01:34:11;;;;;;;10.37;4.00;;;16.50;99.90;;;;;;5052228;28;20091;-65
2022/10/05 01:37:02;;;;;;;19.95;5.00;;;16.40;99.90;;;;;;5083540;28;20347;-65
2022/10/05 01:39:33;;;;;;;11.63;6.32;;;16.50;99.90;;;;;;5044743;28;20021;-64
2022/10/05 01:42:21;;;;;;;8.95;3.72;;;16.50;99.90;;;;;;5049413;28;20031;-64
2022/10/05 01:45:10;;;;;;;11.18;3.50;;;16.60;99.90;;;;;;5058613;28;20507;-64
2022/10/05 01:48:06;;;;;;;15.52;5.78;;;16.60;99.90;;;;;;5034292;28;20025;-64
2022/10/05 01:50:56;;;;;;;9.93;3.63;;;16.60;99.90;;;;;;5047833;28;20053;-63
2022/10/05 01:53:26;;;;;;;13.90;5.30;;;16.50;99.90;;;;;;5021081;28;20064;-63
2022/10/05 01:56:30;;;;;;;8.35;4.90;;;16.60;99.90;;;;;;5041287;28;20769;-64
2022/10/05 01:59:16;;;;;;;14.85;3.90;;;16.70;99.90;;;;;;5030343;28;20514;-64
2022/10/05 02:01:44;;;;;;;10.60;4.13;;;16.80;99.90;;;;;;5038897;28;20079;-64
2022/10/05 02:04:19;;;;;;;12.90;3.35;;;16.80;99.90;;;;;;5041253;28;20108;-64
2022/10/05 02:06:50;;;;;;;7.72;2.20;;;16.80;99.90;;;;;;5046543;28;20025;-64
2022/10/05 02:09:40;;;;;;;7.07;2.63;;;16.70;99.90;;;;;;5033962;28;20018;-63
2022/10/05 02:12:18;;;;;;;13.30;2.88;;;16.50;99.90;;;;;;5036474;28;20036;-64
2022/10/05 02:14:51;;;;;;;13.60;3.88;;;16.30;99.90;;;;;;5028447;28;20057;-63
2022/10/05 02:17:34;;;;;;;11.07;2.50;;;16.30;99.90;;;;;;5028671;28;20038;-64
2022/10/05 02:20:10;;;;;;;6.63;2.55;;;16.30;99.90;;;;;;5030378;28;20030;-63
2022/10/05 02:22:49;;;;;;;17.98;5.85;;;16.40;99.90;;;;;;5025486;28;20513;-64
2022/10/05 02:25:34;;;;;;;10.20;3.47;;;16.50;99.90;;;;;;5026333;28;20017;-63
2022/10/05 02:28:07;;;;;;;11.73;2.03;;;16.50;99.90;;;;;;5029430;28;20029;-63
2022/10/05 02:30:41;;;;;;;10.43;2.38;;;16.40;99.90;;;;;;5028874;28;20087;-63
2022/10/05 02:33:15;;;;;;;8.23;2.10;;;16.30;99.90;;;;;;5027248;28;20043;-63
2022/10/05 02:35:42;;;;;;;13.38;2.63;;;16.30;99.90;;;;;;5041281;28;20025;-63
2022/10/05 02:38:19;;;;;;;8.10;2.33;;;16.40;99.90;;;;;;5037049;28;20402;-63
2022/10/05 02:41:12;;;;;;;7.97;2.08;;;16.40;99.90;;;;;;5030929;28;20032;-63
2022/10/05 02:44:07;;;;;;;9.57;2.10;;;16.30;99.90;;;;;;5034889;28;20025;-63
2022/10/05 02:47:09;;;;;;;8.97;2.20;;;16.20;99.90;;;;;;5034502;28;20032;-61
2022/10/05 02:50:07;;;;;;;8.27;1.67;;;16.20;99.90;;;;;;5042548;28;20048;-60
2022/10/05 02:52:47;;;;;;;9.98;2.13;;;16.10;99.90;;;;;;5052212;28;20039;-62
2022/10/05 02:55:29;;;;;;;6.90;2.28;;;16.00;99.90;;;;;;5055359;28;20033;-63
2022/10/05 02:58:11;;;;;;;12.48;3.28;;;16.00;99.90;;;;;;5047690;28;20564;-60
2022/10/05 03:00:57;;;;;;;9.23;3.60;;;15.90;99.90;;;;;;5053035;28;20032;-62
2022/10/05 03:03:42;;;;;;;14.77;4.65;;;15.90;99.90;;;;;;5058082;28;20052;-61
2022/10/05 03:06:34;;;;;;;18.85;2.88;;;15.90;99.90;;;;;;5044115;28;20040;-61
2022/10/05 03:09:07;;;;;;;11.75;2.13;;;15.80;99.90;;;;;;5050437;28;20119;-63
2022/10/05 03:12:01;;;;;;;11.60;2.33;;;15.60;99.90;;;;;;5050512;28;20028;-61
2022/10/05 03:15:02;;;;;;;10.87;2.27;;;15.70;99.90;;;;;;5038158;28;20037;-61
2022/10/05 03:18:02;;;;;;;13.88;2.58;;;15.50;99.90;;;;;;5048226;28;20049;-62
2022/10/05 03:21:10;;;;;;;8.57;2.17;;;15.40;99.90;;;;;;5051170;28;20029;-61
2022/10/05 03:23:56;;;;;;;9.10;2.17;;;15.30;99.90;;;;;;5001673;28;20466;-61
2022/10/05 03:26:46;;;;;;;9.45;2.42;;;15.20;99.90;;;;;;5003284;28;20108;-61
2022/10/05 03:29:27;;;;;;;10.70;2.60;;;15.00;99.90;;;;;;5001942;28;20044;-61
2022/10/05 03:32:26;;;;;;;11.35;2.58;;;15.00;99.90;;;;;;5051409;28;20028;-61
2022/10/05 03:34:59;;;;;;;10.32;3.22;;;15.10;99.90;;;;;;5058527;28;20078;-62
2022/10/05 03:37:47;;;;;;;9.32;1.83;;;15.00;99.90;;;;;;5055598;28;20032;-61
2022/10/05 03:40:39;;;;;;;10.95;2.25;;;14.90;99.90;;;;;;5053027;28;20021;-61
2022/10/05 03:43:22;;;;;;;5.50;2.17;;;14.80;99.90;;;;;;5049996;28;20059;-61
2022/10/05 03:46:19;;;;;;;9.80;2.05;;;14.70;99.90;;;;;;5054121;28;20021;-61
2022/10/05 03:49:08;;;;;;;7.53;1.80;;;14.70;99.90;;;;;;5057609;28;20049;-61
2022/10/05 03:51:46;;;;;;;8.65;1.77;;;14.60;99.90;;;;;;5057346;28;20055;-64
2022/10/05 03:54:22;;;;;;;7.38;1.90;;;14.50;99.90;;;;;;5049195;28;20083;-61
2022/10/05 03:57:00;;;;;;;10.13;1.95;;;14.60;99.90;;;;;;5063790;28;20512;-61
2022/10/05 03:59:33;;;;;;;6.70;1.90;;;14.50;99.90;;;;;;5062681;28;20024;-61
2022/10/05 04:02:11;;;;;;;14.13;2.90;;;14.50;99.90;;;;;;5050662;28;20021;-61
2022/10/05 04:04:52;;;;;;;12.55;2.85;;;14.50;99.90;;;;;;5061491;28;20100;-62
2022/10/05 04:07:49;;;;;;;13.45;2.10;;;14.60;99.90;;;;;;5041897;28;20024;-62
2022/10/05 04:10:42;;;;;;;12.20;2.90;;;14.60;99.90;;;;;;5067653;28;20035;-62
2022/10/05 04:13:38;;;;;;;13.10;2.28;;;14.60;99.90;;;;;;5048869;28;20032;-62
2022/10/05 04:16:21;;;;;;;10.38;2.05;;;14.60;99.90;;;;;;5048105;28;20052;-62
2022/10/05 04:18:53;;;;;;;15.65;2.53;;;14.60;99.90;;;;;;5050402;28;20025;-61
2022/10/05 04:21:34;;;;;;;17.25;2.50;;;14.60;99.90;;;;;;5047666;28;20021;-61
2022/10/05 04:24:05;;;;;;;11.60;2.70;;;14.60;99.90;;;;;;5054597;28;20025;-62
2022/10/05 04:27:06;;;;;;;11.30;2.42;;;14.60;99.90;;;;;;5049928;28;20044;-61
2022/10/05 04:29:37;;;;;;;20.98;3.08;;;14.60;99.90;;;;;;5043044;28;20489;-61
2022/10/05 04:32:22;;;;;;;14.38;3.65;;;14.60;99.90;;;;;;5051491;28;20036;-62
2022/10/05 04:35:14;;;;;;;17.33;2.88;;;14.60;99.90;;;;;;5051779;28;20086;-61
2022/10/05 04:37:53;;;;;;;10.50;1.73;;;14.60;99.90;;;;;;5043731;28;20112;-61
2022/10/05 04:40:32;;;;;;;11.90;2.40;;;14.50;99.90;;;;;;5048720;28;20500;-61
2022/10/05 04:43:33;;;;;;;10.10;1.67;;;14.50;99.90;;;;;;5053155;28;20029;-61
2022/10/05 04:46:06;;;;;;;13.27;2.30;;;14.50;99.90;;;;;;5043063;28;20021;-61
2022/10/05 04:49:00;;;;;;;10.95;2.22;;;14.50;99.90;;;;;;5050280;28;20553;-61
2022/10/05 04:51:28;;;;;;;9.82;2.63;;;14.50;99.90;;;;;;5043766;28;20051;-61
2022/10/05 04:54:30;;;;;;;9.95;2.55;;;14.50;99.90;;;;;;5045793;28;20040;-61
2022/10/05 04:57:05;;;;;;;18.08;2.47;;;14.60;99.90;;;;;;5041786;28;20048;-61
2022/10/05 04:59:59;;;;;;;10.43;1.95;;;14.60;99.90;;;;;;5054562;28;20440;-62
2022/10/05 05:02:41;;;;;;;12.15;2.35;;;14.60;99.90;;;;;;5042592;28;20021;-61
2022/10/05 05:05:27;;;;;;;10.07;2.00;;;14.50;99.90;;;;;;5053668;28;20098;-62
2022/10/05 05:08:12;;;;;;;6.05;1.83;;;14.50;99.90;;;;;;5043036;28;21019;-61
2022/10/05 05:11:13;;;;;;;6.53;2.00;;;14.50;99.90;;;;;;5047087;28;20040;-61
2022/10/05 05:13:58;;;;;;;10.25;2.00;;;14.40;99.90;;;;;;5044873;28;20021;-61
2022/10/05 05:16:45;;;;;;;8.00;2.28;;;14.30;99.90;;;;;;5045175;28;20109;-61
2022/10/05 05:19:38;;;;;;;14.25;4.18;;;14.20;99.90;;;;;;5055096;28;20036;-61
2022/10/05 05:22:05;;;;;;;7.05;2.40;;;14.20;99.90;;;;;;5051145;28;20571;-62
2022/10/05 05:24:50;;;;;;;6.57;1.85;;;14.20;99.90;;;;;;5050419;28;20040;-61
2022/10/05 05:27:38;;;;;;;9.93;2.17;;;14.20;99.90;;;;;;5036403;28;20045;-62
2022/10/05 05:30:26;;;;;;;13.18;2.35;;;14.20;99.90;;;;;;5050931;28;20028;-63
2022/10/05 05:33:19;;;;;;;10.35;1.88;;;14.20;99.90;;;;;;5054849;28;20027;-61
2022/10/05 05:35:57;;;;;;;10.43;2.00;;;14.20;99.90;;;;;;5054279;28;20040;-62
2022/10/05 05:38:36;;;;;;;8.50;2.10;;;14.20;99.90;;;;;;5052176;28;20415;-61
2022/10/05 05:41:15;;;;;;;11.57;2.47;;;14.20;99.90;;;;;;5054738;28;20028;-61
2022/10/05 05:43:45;;;;;;;8.77;2.65;;;14.20;99.90;;;;;;5039974;28;20025;-62
2022/10/05 05:46:21;;;;;;;9.00;1.85;;;14.20;99.90;;;;;;5051735;28;20040;-61
2022/10/05 05:48:51;;;;;;;8.55;1.95;;;14.20;99.90;;;;;;5047495;28;20025;-62
2022/10/05 05:51:34;;;;;;;10.40;2.50;;;14.20;99.90;;;;;;5049404;28;20021;-62
2022/10/05 05:54:23;;;;;;;7.85;2.75;;;14.20;99.90;;;;;;5045092;28;20029;-62
2022/10/05 05:56:55;;;;;;;8.25;2.05;;;14.20;99.90;;;;;;5044513;28;20036;-62
2022/10/05 05:59:35;;;;;;;12.05;2.67;;;14.20;99.90;;;;;;5046890;28;20017;-62
2022/10/05 06:02:14;;;;;;;20.52;3.30;;;14.20;99.90;;;;;;5056443;28;20025;-63
2022/10/05 06:04:44;;;;;;;9.30;2.50;;;14.10;99.90;;;;;;5047487;28;20026;-63
2022/10/05 06:07:19;;;;;;;7.88;2.67;;;14.20;99.90;;;;;;5049320;28;20373;-62
2022/10/05 06:09:56;;;;;;;8.52;2.47;;;14.20;99.90;;;;;;5046761;28;20013;-64
2022/10/05 06:12:31;;;;;;;10.48;2.90;;;14.20;99.90;;;;;;5043741;28;20036;-62
2022/10/05 06:15:13;;;;;;;5.97;2.38;;;14.20;99.90;;;;;;5042603;28;20115;-62
2022/10/05 06:17:53;;;;;;;7.68;1.95;;;14.20;99.90;;;;;;5047915;28;20082;-62
2022/10/05 06:20:34;;;;;;;8.93;2.45;;;14.20;99.90;;;;;;5045100;28;20032;-62
2022/10/05 06:23:06;;;;;;;12.35;3.30;;;14.10;99.90;;;;;;5043894;28;20025;-64
2022/10/05 06:25:42;;;;;;;8.60;2.92;;;14.10;99.90;;;;;;5048085;28;20106;-63
2022/10/05 06:28:12;;;;;;;7.18;3.20;;;14.10;99.90;;;;;;5043760;28;20032;-62
2022/10/05 06:30:47;;;;;;;9.50;3.13;;;14.10;99.90;;;;;;5051901;28;20112;-63
2022/10/05 06:33:29;;;;;;;9.32;3.28;;;14.10;99.90;;;;;;5048482;28;20139;-63
2022/10/05 06:35:59;;;;;;;8.25;2.72;;;14.00;99.90;;;;;;5050432;28;20691;-63
2022/10/05 06:38:29;;;;;;;16.55;3.65;;;14.10;99.90;;;;;;5044737;28;20032;-62
2022/10/05 06:41:05;;;;;;;9.77;2.50;;;14.10;99.90;;;;;;5046890;28;20108;-63
2022/10/05 06:43:44;;;;;;;16.85;2.67;;;14.10;99.90;;;;;;5047792;28;20351;-62
2022/10/05 06:46:21;;;;;;;8.38;2.72;;;14.10;99.90;;;;;;5046184;28;20073;-63
2022/10/05 06:49:08;;;;;;;10.93;2.42;;;14.20;99.90;;;;;;5047052;28;20013;-62
2022/10/05 06:51:56;;;;;;;12.63;2.78;;;14.20;99.90;;;;;;5046309;28;20025;-61
2022/10/05 06:54:42;;;;;;;16.58;3.50;;;14.20;99.90;;;;;;5046348;28;20111;-61
2022/10/05 06:57:18;;;;;;;15.95;3.85;;;14.20;99.90;;;;;;5043839;28;20044;-62
2022/10/05 07:00:19;;;;;;;13.10;2.55;;;14.20;99.90;;;;;;5047518;28;20084;-63
2022/10/05 07:02:56;;;;;;;18.05;3.15;;;14.20;99.90;;;;;;5049214;28;20163;-61
2022/10/05 07:05:53;;;;;;;19.02;2.83;;;14.20;99.90;;;;;;5044705;28;20176;-64
2022/10/05 07:08:40;;;;;;;13.13;2.80;;;14.20;99.90;;;;;;5047870;28;20032;-61
2022/10/05 07:11:07;;;;;;;15.93;3.17;;;14.20;99.90;;;;;;5070037;28;20501;-61
2022/10/05 07:13:52;;;;;;;20.52;3.63;;;14.20;99.90;;;;;;5041908;28;20037;-62
2022/10/05 07:17:06;;;;;;;23.08;3.22;;;14.10;99.90;;;;;;5049378;28;20040;-61
2022/10/05 07:20:08;;;;;;;16.02;2.70;;;14.10;99.90;;;;;;5043061;28;20025;-63
2022/10/05 07:22:48;;;;;;;24.85;3.80;;;14.10;99.90;;;;;;5046883;28;20541;-62
2022/10/05 07:25:19;;;;;;;15.95;3.80;;;14.10;99.90;;;;;;5050751;28;20021;-61
2022/10/05 07:28:06;;;;;;;17.35;3.20;;;14.00;99.90;;;;;;5049532;28;20040;-60
2022/10/05 07:31:05;;;;;;;20.25;3.53;;;14.00;99.90;;;;;;5051894;28;20057;-60
2022/10/05 07:33:50;;;;;;;30.05;3.85;;;14.00;99.90;;;;;;5055970;28;20111;-59
2022/10/05 07:39:18;;;;;;;19.17;2.85;;;14.00;99.90;;;;;;5040721;28;20046;-61
2022/10/05 07:41:57;;;;;;;13.77;2.97;;;14.00;99.90;;;;;;5053979;28;20018;-59
2022/10/05 07:44:47;;;;;;;17.13;2.50;;;13.90;99.90;;;;;;5054605;28;20028;-61
2022/10/05 07:47:46;;;;;;;17.20;3.03;;;13.90;99.90;;;;;;5053689;28;20445;-61
2022/10/05 07:50:24;;;;;;;31.73;3.35;;;13.90;99.90;;;;;;5044660;28;20405;-59
2022/10/05 07:53:21;;;;;;;17.17;3.03;;;13.90;99.90;;;;;;5057066;28;20025;-60
2022/10/05 07:55:58;;;;;;;18.63;4.20;;;13.90;99.90;;;;;;5047836;28;20025;-62
2022/10/05 07:58:41;;;;;;;20.90;2.65;;;13.90;99.90;;;;;;5046401;28;20098;-60
2022/10/05 08:01:31;;;;;;;17.20;3.80;;;13.90;99.90;;;;;;5051157;28;20025;-59
2022/10/05 08:04:19;;;;;;;30.67;3.42;;;13.80;99.90;;;;;;5053820;28;20553;-60
2022/10/05 08:07:04;;;;;;;20.08;3.42;;;13.80;99.90;;;;;;5052730;28;20025;-60
2022/10/05 08:09:55;;;;;;;19.83;3.13;;;13.80;99.90;;;;;;5055397;28;20039;-60
2022/10/05 08:12:29;;;;;;;20.85;3.53;;;13.80;99.90;;;;;;5057945;28;20055;-61
2022/10/05 08:15:06;;;;;;;21.30;3.67;;;13.80;99.90;;;;;;5063830;28;20052;-62
2022/10/05 08:17:52;;;;;;;27.80;4.72;;;13.80;99.90;;;;;;5041715;28;20167;-61
2022/10/05 08:20:44;;;;;;;22.98;4.28;;;13.80;99.90;;;;;;5043833;28;20025;-61
2022/10/05 08:23:30;;;;;;;23.90;4.60;;;13.80;99.90;;;;;;5051273;28;20099;-61
2022/10/05 08:26:35;;;;;;;17.10;5.25;;;13.80;99.90;;;;;;5046125;28;20033;-61
2022/10/05 08:29:25;;;;;;;17.20;3.87;;;13.70;99.90;;;;;;5059627;28;20032;-61
2022/10/05 08:32:11;;;;;;;27.40;4.20;;;13.80;99.90;;;;;;5037117;28;20512;-61
2022/10/05 08:35:01;;;;;;;21.73;3.70;;;13.70;99.90;;;;;;5047669;28;20111;-60
2022/10/05 08:37:36;;;;;;;21.23;3.13;;;13.70;99.90;;;;;;5043020;28;20174;-60
2022/10/05 08:40:09;;;;;;;21.55;4.15;;;13.70;99.90;;;;;;5045931;28;20459;-61
2022/10/05 08:42:55;;;;;;;27.50;5.18;;;13.70;99.90;;;;;;5045187;28;20024;-61
2022/10/05 08:45:40;;;;;;;27.05;4.30;;;13.70;99.90;;;;;;5070307;28;20025;-60
2022/10/05 08:48:49;;;;;;;23.77;3.50;;;13.70;99.90;;;;;;5043140;28;20411;-60
2022/10/05 08:51:43;;;;;;;19.35;3.58;;;13.70;99.90;;;;;;5037744;28;20102;-60
2022/10/05 08:54:38;;;;;;;27.40;3.90;;;13.70;99.90;;;;;;5058015;28;20135;-60
2022/10/05 08:57:11;;;;;;;21.60;4.53;;;13.70;99.90;;;;;;5044127;28;20044;-60
2022/10/05 09:00:12;;;;;;;27.58;4.15;;;13.70;99.90;;;;;;5041369;28;20029;-61
2022/10/05 09:02:54;;;;;;;24.35;5.38;;;13.70;99.90;;;;;;5052257;28;20036;-62
2022/10/05 09:05:43;;;;;;;29.50;4.18;;;13.70;99.90;;;;;;5041490;28;20072;-64
2022/10/05 09:08:35;;;;;;;23.70;4.35;;;13.70;99.90;;;;;;5056023;28;20110;-62
2022/10/05 09:11:05;;;;;;;27.38;4.07;;;13.60;99.90;;;;;;5048115;28;20059;-61
2022/10/05 09:14:24;;;;;;;21.85;3.00;;;13.60;99.90;;;;;;5048350;28;20029;-62
2022/10/05 09:17:05;;;;;;;25.48;3.20;;;13.70;99.90;;;;;;5010377;28;20037;-61
2022/10/05 09:19:51;;;;;;;20.17;3.08;;;13.70;99.90;;;;;;5043119;28;20025;-61
2022/10/05 09:22:37;;;;;;;26.77;3.47;;;13.60;99.90;;;;;;5046852;28;20052;-61
2022/10/05 09:25:28;;;;;;;24.38;5.38;;;13.60;99.90;;;;;;5055828;28;20481;-61
2022/10/05 09:28:10;;;;;;;21.60;3.83;;;13.60;99.90;;;;;;5059192;28;20036;-61
2022/10/05 09:30:52;;;;;;;21.90;4.00;;;13.60;99.90;;;;;;5041488;28;20033;-62
2022/10/05 09:33:29;;;;;;;26.60;3.95;;;13.60;99.90;;;;;;5035931;28;20048;-63
2022/10/05 09:36:14;;;;;;;29.02;5.40;;;13.60;99.90;;;;;;5046179;28;20023;-61
2022/10/05 09:39:05;;;;;;;22.80;3.85;;;13.50;99.90;;;;;;5045195;28;20707;-61
2022/10/05 09:41:50;;;;;;;27.83;4.03;;;13.60;99.90;;;;;;5057832;28;20088;-62
2022/10/05 09:44:55;;;;;;;28.33;3.42;;;13.60;99.90;;;;;;5051584;28;20972;-62
2022/10/05 09:47:22;;;;;;;21.10;4.20;;;13.60;99.90;;;;;;5031146;28;20037;-61
2022/10/05 09:50:04;;;;;;;23.92;3.92;;;13.60;99.90;;;;;;5038670;28;20071;-62
2022/10/05 09:53:03;;;;;;;26.73;3.65;;;13.60;99.90;;;;;;5046365;28;20048;-62
2022/10/05 09:55:40;;;;;;;32.88;4.97;;;13.60;99.90;;;;;;5043491;28;20036;-61
2022/10/05 09:58:41;;;;;;;20.02;2.70;;;13.60;99.90;;;;;;5053967;28;20044;-61
2022/10/05 10:01:35;;;;;;;25.52;4.28;;;13.60;99.90;;;;;;5041783;28;20031;-61
2022/10/05 10:04:23;;;;;;;28.85;4.00;;;13.60;99.90;;;;;;5045043;28;20029;-61
2022/10/05 10:07:03;;;;;;;31.17;3.53;;;13.60;99.90;;;;;;5040200;28;20028;-61
2022/10/05 10:09:34;;;;;;;18.42;2.78;;;13.60;99.90;;;;;;5043104;28;20049;-61
2022/10/05 10:12:10;;;;;;;20.40;3.65;;;13.60;99.90;;;;;;5048391;28;20118;-62
2022/10/05 10:14:48;;;;;;;25.52;3.65;;;13.50;99.90;;;;;;5045815;28;20024;-63
2022/10/05 10:17:47;;;;;;;27.85;4.22;;;13.60;99.90;;;;;;5041673;28;20040;-61
2022/10/05 10:20:26;;;;;;;19.48;3.25;;;13.60;99.90;;;;;;5046860;28;20132;-61
2022/10/05 10:23:24;;;;;;;20.45;3.47;;;13.50;99.90;;;;;;5045272;28;20040;-61
2022/10/05 10:26:10;;;;;;;20.48;3.42;;;13.60;99.90;;;;;;5051389;28;20116;-61
2022/10/05 10:28:54;;;;;;;25.13;4.13;;;13.60;99.90;;;;;;5040201;28;20733;-61
2022/10/05 10:31:41;;;;;;;14.52;2.92;;;13.60;99.90;;;;;;5037427;28;20028;-62
2022/10/05 10:34:24;;;;;;;28.63;4.13;;;13.50;99.90;;;;;;5041467;28;20032;-61
2022/10/05 10:37:19;;;;;;;29.67;3.10;;;13.60;99.90;;;;;;5041503;28;20531;-60
2022/10/05 10:40:28;;;;;;;21.85;2.58;;;13.50;99.90;;;;;;5041921;28;20094;-61
2022/10/05 10:42:57;;;;;;;18.52;2.83;;;13.50;99.90;;;;;;5011066;28;20029;-61
2022/10/05 10:45:40;;;;;;;31.65;6.10;;;13.60;99.90;;;;;;5038694;28;20022;-61
2022/10/05 10:48:29;;;;;;;23.65;4.43;;;13.50;99.90;;;;;;5041187;28;20017;-61
2022/10/05 10:51:24;;;;;;;24.30;4.20;;;13.50;99.90;;;;;;5040698;28;20037;-61
2022/10/05 10:54:48;;;;;;;24.70;3.60;;;13.60;99.90;;;;;;5044092;28;20029;-62
2022/10/05 10:57:25;;;;;;;18.05;2.72;;;13.50;99.90;;;;;;5020227;28;20056;-62
2022/10/05 11:00:01;;;;;;;14.38;2.70;;;13.50;99.90;;;;;;5026429;28;20123;-61
2022/10/05 11:02:37;;;;;;;22.65;2.58;;;13.50;99.90;;;;;;5037692;28;20473;-61
2022/10/05 11:05:34;;;;;;;23.60;3.30;;;13.50;99.90;;;;;;5045308;28;20036;-61
2022/10/05 11:08:08;;;;;;;18.55;3.95;;;13.50;99.90;;;;;;5043556;28;20040;-62
2022/10/05 11:11:18;;;;;;;18.60;2.87;;;13.50;99.90;;;;;;5046145;28;20028;-62
2022/10/05 11:14:22;;;;;;;22.75;3.75;;;13.50;99.90;;;;;;5043474;28;20301;-62
2022/10/05 11:16:55;;;;;;;24.67;3.30;;;13.50;99.90;;;;;;5043107;28;20072;-61
2022/10/05 11:19:28;;;;;;;24.48;2.97;;;13.50;99.90;;;;;;5040896;28;20120;-62
2022/10/05 11:22:01;;;;;;;16.98;3.15;;;13.60;99.90;;;;;;5045771;28;20096;-62
2022/10/05 11:24:46;;;;;;;24.73;3.53;;;13.60;99.90;;;;;;5041600;28;20053;-63
2022/10/05 11:27:25;;;;;;;;;;;13.60;99.90;;;;;;5045951;28;20108;-63
2022/10/05 11:30:13;;;;;;;24.95;2.90;;;13.50;99.90;;;;;;5047114;28;19939;-61
2022/10/05 11:32:56;;;;;;;28.15;2.90;;;13.50;99.90;;;;;;5045176;28;20082;-62
2022/10/05 11:35:46;;;;;;;20.33;3.13;;;13.60;99.90;;;;;;5048510;28;20086;-61
2022/10/05 11:38:44;;;;;;;24.38;3.33;;;13.50;99.90;;;;;;5056775;28;20040;-62
2022/10/05 11:41:32;;;;;;;27.73;3.50;;;13.50;99.90;;;;;;5049694;28;20036;-61
2022/10/05 11:44:09;;;;;;;22.13;3.63;;;13.50;99.90;;;;;;5038914;28;20029;-61
2022/10/05 11:46:58;;;;;;;33.20;3.80;;;13.50;99.90;;;;;;5047254;28;20035;-62
2022/10/05 11:49:33;;;;;;;33.50;3.00;;;13.50;99.90;;;;;;5042238;28;20044;-61
2022/10/05 11:52:16;;;;;;;23.98;3.00;;;13.50;99.90;;;;;;5050348;28;20036;-61
2022/10/05 11:54:56;;;;;;;29.98;3.78;;;13.50;99.90;;;;;;5050181;28;20468;-61
2022/10/05 11:57:40;;;;;;;24.33;4.03;;;13.60;99.90;;;;;;5033746;28;20056;-61
2022/10/05 12:00:20;;;;;;;37.28;4.80;;;13.60;99.90;;;;;;5071554;28;20028;-61
2022/10/05 12:03:11;;;;;;;23.23;3.00;;;13.60;99.90;;;;;;5053918;28;20053;-61
2022/10/05 12:05:46;;;;;;;23.13;3.33;;;13.60;99.90;;;;;;5045771;28;20090;-61
2022/10/05 12:08:22;;;;;;;15.77;2.97;;;13.60;99.90;;;;;;5045323;28;20017;-61
2022/10/05 12:11:07;;;;;;;32.78;4.00;;;13.50;99.90;;;;;;5044973;28;20393;-61
2022/10/05 12:13:46;;;;;;;22.58;3.28;;;13.60;99.90;;;;;;5049493;28;20363;-61
2022/10/05 12:16:22;;;;;;;25.25;4.35;;;13.50;99.90;;;;;;5048939;28;20078;-61
2022/10/05 12:18:57;;;;;;;26.38;3.05;;;13.50;99.90;;;;;;5055816;28;20389;-61
2022/10/05 12:21:35;;;;;;;20.50;2.90;;;13.50;99.90;;;;;;5053578;28;20021;-61
2022/10/05 12:24:08;;;;;;;25.05;3.53;;;13.50;99.90;;;;;;5047391;28;20044;-61
2022/10/05 12:27:02;;;;;;;17.45;2.67;;;13.50;99.90;;;;;;5047199;28;20053;-63
2022/10/05 12:29:41;;;;;;;22.02;4.22;;;13.50;99.90;;;;;;5048503;28;20033;-61
2022/10/05 12:32:23;;;;;;;19.95;2.70;;;13.50;99.90;;;;;;5046916;28;20033;-61
2022/10/05 12:35:02;;;;;;;13.68;1.92;;;13.50;99.90;;;;;;5049331;28;20514;-61
2022/10/05 12:37:42;;;;;;;22.52;3.15;;;13.50;99.90;;;;;;5055014;28;20107;-61
2022/10/05 12:40:35;;;;;;;18.05;2.67;;;13.40;99.90;;;;;;5049707;28;20029;-61
2022/10/05 12:43:14;;;;;;;22.33;2.70;;;13.50;99.90;;;;;;5047391;28;20489;-61
2022/10/05 12:46:02;;;;;;;25.40;3.75;;;13.50;99.90;;;;;;5046651;28;20026;-61
2022/10/05 12:48:57;;;;;;;26.65;3.65;;;13.50;99.90;;;;;;5061994;28;20436;-61
2022/10/05 12:51:42;;;;;;;14.50;2.80;;;13.50;99.90;;;;;;5029829;28;20459;-61
2022/10/05 12:54:15;;;;;;;14.85;3.30;;;13.40;99.90;;;;;;5063929;28;20041;-62
2022/10/05 12:57:01;;;;;;;19.85;2.63;;;13.40;99.90;;;;;;5069731;28;20024;-61
2022/10/05 12:59:50;;;;;;;15.40;3.25;;;13.40;99.90;;;;;;5066861;28;20052;-61
2022/10/05 13:02:40;;;;;;;25.65;4.55;;;13.40;99.90;;;;;;5052584;28;20024;-61
2022/10/05 13:05:10;;;;;;;15.27;3.55;;;13.40;99.90;;;;;;5048345;28;20363;-62
2022/10/05 13:07:59;;;;;;;22.65;2.65;;;13.40;99.90;;;;;;5048136;28;20021;-61
2022/10/05 13:10:46;;;;;;;14.07;2.60;;;13.40;99.90;;;;;;5036342;28;20039;-61
2022/10/05 13:13:47;;;;;;;21.83;2.63;;;13.30;99.90;;;;;;5059593;28;20100;-62
2022/10/05 13:16:32;;;;;;;22.95;3.97;;;13.30;99.90;;;;;;5049148;28;20021;-61
2022/10/05 13:19:08;;;;;;;19.35;2.42;;;13.30;99.90;;;;;;5047805;28;20041;-62
2022/10/05 13:21:57;;;;;;;17.85;3.25;;;13.30;99.90;;;;;;5047577;28;20029;-63
2022/10/05 13:24:36;;;;;;;15.15;2.15;;;13.30;99.90;;;;;;5044703;28;20021;-62
2022/10/05 13:27:12;;;;;;;15.00;2.30;;;13.30;99.90;;;;;;5046592;28;20017;-61
2022/10/05 13:29:54;;;;;;;24.27;3.22;;;13.30;99.90;;;;;;5040159;28;20021;-61
2022/10/05 13:32:41;;;;;;;13.27;2.30;;;13.30;99.90;;;;;;5045688;28;20041;-61
2022/10/05 13:35:11;;;;;;;28.23;2.95;;;13.40;99.90;;;;;;5045712;28;20036;-62
2022/10/05 13:38:08;;;;;;;21.15;2.97;;;13.40;99.90;;;;;;5052852;28;20040;-62
2022/10/05 13:40:57;;;;;;;23.48;2.67;;;13.30;99.90;;;;;;5048133;28;20381;-65
2022/10/05 13:43:37;;;;;;;21.95;2.80;;;13.30;99.90;;;;;;5056131;28;20091;-61
2022/10/05 13:46:17;;;;;;;22.40;3.90;;;13.40;99.90;;;;;;5049293;28;20031;-61
2022/10/05 13:49:00;;;;;;;17.52;2.55;;;13.40;99.90;;;;;;5060931;28;20412;-62
2022/10/05 13:51:41;;;;;;;20.13;2.30;;;13.40;99.90;;;;;;5047223;28;20063;-61
2022/10/05 13:54:20;;;;;;;17.00;2.05;;;13.40;99.90;;;;;;5044853;28;20035;-61
2022/10/05 13:57:29;;;;;;;12.20;2.80;;;13.40;99.90;;;;;;5045381;28;20033;-61
2022/10/05 14:00:01;;;;;;;21.88;2.63;;;13.40;99.90;;;;;;5025306;28;20061;-61
2022/10/05 14:02:38;;;;;;;18.30;3.30;;;13.40;99.90;;;;;;5053796;28;20394;-61
2022/10/05 14:05:20;;;;;;;24.38;4.32;;;13.40;99.90;;;;;;5047942;28;20544;-61